createdAt,value
2022-12-04T00:04:30.200Z,3.52
2022-12-04T00:15:27.166Z,3.55
2022-12-04T00:25:39.419Z,3.62
2022-12-04T00:35:47.274Z,3.45
2022-12-04T00:45:54.450Z,3.39
2022-12-04T00:56:00.851Z,3.30
2022-12-04T01:06:07.106Z,3.21
2022-12-04T01:16:16.352Z,3.30
2022-12-04T01:26:20.739Z,3.27
2022-12-04T01:36:27.132Z,3.19
2022-12-04T01:46:33.294Z,3.11
2022-12-04T01:56:43.222Z,3.23
2022-12-04T02:06:48.781Z,3.31
2022-12-04T02:17:07.364Z,3.22
2022-12-04T02:27:27.040Z,3.07
2022-12-04T02:37:36.390Z,3.11
2022-12-04T02:47:43.821Z,3.13
2022-12-04T02:57:52.762Z,3.16
2022-12-04T03:08:02.975Z,3.15
2022-12-04T03:18:16.829Z,3.40
2022-12-04T03:28:28.585Z,3.35
2022-12-04T03:38:41.360Z,2.98
2022-12-04T03:48:49.316Z,2.81
2022-12-04T03:58:58.554Z,2.80
2022-12-04T04:09:06.346Z,2.82
2022-12-04T04:19:34.038Z,2.82
2022-12-04T04:29:38.736Z,2.60
2022-12-04T04:39:54.250Z,2.87
2022-12-04T04:50:00.816Z,2.78
2022-12-04T05:00:11.297Z,2.95
2022-12-04T05:22:03.479Z,2.83
2022-12-04T05:32:07.026Z,2.81
2022-12-04T05:42:11.534Z,2.57
2022-12-04T05:52:14.371Z,2.74
2022-12-04T06:02:18.791Z,2.65
2022-12-04T06:12:21.734Z,2.73
2022-12-04T06:22:25.755Z,2.67
2022-12-04T06:32:29.315Z,2.86
2022-12-04T06:42:33.739Z,2.76
2022-12-04T06:52:36.761Z,2.69
2022-12-04T07:02:41.173Z,2.35
2022-12-04T07:12:44.254Z,2.38
2022-12-04T07:22:48.465Z,2.64
2022-12-04T07:32:51.178Z,2.50
2022-12-04T07:42:55.506Z,2.49
2022-12-04T07:52:58.597Z,2.63
2022-12-04T08:03:03.003Z,2.41
2022-12-04T08:13:06.153Z,2.48
2022-12-04T08:23:10.538Z,2.47
2022-12-04T08:33:13.365Z,2.50
2022-12-04T08:43:17.776Z,2.82
2022-12-04T08:53:21.325Z,2.66
2022-12-04T09:03:30.705Z,2.46
2022-12-04T09:13:34.656Z,2.47
2022-12-04T09:23:40.663Z,2.52
2022-12-04T09:33:44.043Z,2.42
2022-12-04T09:43:55.691Z,2.34
2022-12-04T09:54:03.687Z,2.47
2022-12-04T10:04:10.879Z,2.58
2022-12-04T10:14:25.252Z,2.52
2022-12-04T10:24:41.072Z,2.99
2022-12-04T10:34:45.931Z,2.88
2022-12-04T10:44:50.422Z,2.96
2022-12-04T10:54:57.891Z,2.87
2022-12-04T11:05:05.428Z,2.90
2022-12-04T11:15:16.030Z,3.00
2022-12-04T11:25:22.990Z,2.97
2022-12-04T11:35:28.296Z,3.14
2022-12-04T11:45:34.306Z,3.06
2022-12-04T11:55:46.388Z,3.09
2022-12-04T12:06:13.378Z,3.14
2022-12-04T12:16:26.506Z,3.23
2022-12-04T12:26:42.397Z,3.35
2022-12-04T12:36:52.604Z,3.15
2022-12-04T12:47:03.031Z,3.14
2022-12-04T12:57:13.685Z,3.20
2022-12-04T13:07:28.739Z,3.33
2022-12-04T13:17:35.343Z,3.16
2022-12-04T13:27:48.074Z,3.36
2022-12-04T13:38:08.771Z,3.42
2022-12-04T13:48:13.082Z,3.38
2022-12-04T13:58:29.582Z,3.44
2022-12-04T14:08:39.361Z,3.25
2022-12-04T14:18:48.763Z,3.38
2022-12-04T14:28:55.174Z,3.37
2022-12-04T14:39:05.864Z,3.36
2022-12-04T14:49:28.129Z,3.34
2022-12-04T14:59:41.699Z,3.43
2022-12-04T15:10:11.512Z,3.38
2022-12-04T15:20:18.234Z,3.28
2022-12-04T15:30:24.906Z,3.47
2022-12-04T15:40:30.901Z,3.62
2022-12-04T15:50:35.194Z,3.62
2022-12-04T16:00:40.308Z,3.71
2022-12-04T16:10:44.886Z,3.71
2022-12-04T16:20:48.051Z,3.55
2022-12-04T16:30:54.010Z,3.62
2022-12-04T16:40:57.750Z,3.97
2022-12-04T16:51:02.367Z,4.03
2022-12-04T17:01:07.640Z,3.89
2022-12-04T17:11:13.995Z,3.66
2022-12-04T17:21:17.100Z,3.70
2022-12-04T17:31:23.619Z,3.73
2022-12-04T17:41:26.932Z,3.74
2022-12-04T17:51:31.399Z,3.89
2022-12-04T18:01:34.536Z,3.79
2022-12-04T18:11:41.189Z,3.78
2022-12-04T18:21:44.217Z,3.77
2022-12-04T18:31:48.973Z,3.97
2022-12-04T18:41:55.153Z,4.03
2022-12-04T18:52:00.213Z,4.03
2022-12-04T19:02:03.280Z,3.89
2022-12-04T19:12:08.767Z,3.88
2022-12-04T19:22:11.627Z,3.95
2022-12-04T19:32:16.038Z,4.08
2022-12-04T19:42:19.059Z,4.08
2022-12-04T19:52:23.739Z,4.08
2022-12-04T20:02:27.098Z,4.07
2022-12-04T20:12:31.425Z,4.09
2022-12-04T20:22:35.418Z,4.07
2022-12-04T20:32:39.855Z,4.17
2022-12-04T20:42:42.907Z,4.07
2022-12-04T20:52:47.179Z,4.06
2022-12-04T21:02:50.379Z,4.13
2022-12-04T21:13:11.825Z,4.15
2022-12-04T21:23:14.771Z,4.12
2022-12-04T21:33:19.101Z,4.13
2022-12-04T21:43:21.993Z,4.09
2022-12-04T21:53:26.586Z,3.94
2022-12-04T22:03:29.702Z,4.00
2022-12-04T22:13:34.217Z,3.74
2022-12-04T22:23:37.721Z,4.07
2022-12-04T22:33:43.130Z,3.81
2022-12-04T22:43:47.415Z,3.74
2022-12-04T22:53:54.992Z,3.81
2022-12-04T23:03:58.771Z,3.74
2022-12-04T23:14:04.911Z,3.82
2022-12-04T23:24:08.570Z,3.78
2022-12-04T23:34:13.030Z,3.55
2022-12-04T23:44:16.339Z,3.69
2022-12-04T23:54:20.950Z,3.70
